createdAt,value
2022-12-06T00:01:21.337Z,3.20
2022-12-06T00:03:49.377Z,3.10
2022-12-06T00:06:18.487Z,3.20
2022-12-06T00:08:47.119Z,3.47
2022-12-06T00:11:18.975Z,3.00
2022-12-06T00:13:47.015Z,3.93
2022-12-06T00:16:17.163Z,3.40
2022-12-06T00:18:45.298Z,3.40
2022-12-06T00:21:23.473Z,3.27
2022-12-06T00:23:55.919Z,3.80
2022-12-06T00:26:23.798Z,3.93
2022-12-06T00:28:53.187Z,3.90
2022-12-06T00:31:21.489Z,3.40
2022-12-06T00:33:49.130Z,3.53
2022-12-06T00:36:17.732Z,3.27
2022-12-06T00:38:45.269Z,3.30
2022-12-06T00:41:14.029Z,3.60
2022-12-06T00:43:41.418Z,3.80
2022-12-06T00:46:09.910Z,3.27
2022-12-06T00:48:37.343Z,3.27
2022-12-06T00:51:04.809Z,3.60
2022-12-06T00:53:32.107Z,3.63
2022-12-06T00:55:59.597Z,3.90
2022-12-06T00:58:27.106Z,3.90
2022-12-06T01:00:54.588Z,3.87
2022-12-06T01:03:22.109Z,3.90
2022-12-06T01:05:50.765Z,4.07
2022-12-06T01:08:19.151Z,3.43
2022-12-06T01:10:54.080Z,4.07
2022-12-06T01:13:21.327Z,3.60
2022-12-06T01:15:48.658Z,3.60
2022-12-06T01:18:16.128Z,3.37
2022-12-06T01:20:43.646Z,3.10
2022-12-06T01:23:10.977Z,3.77
2022-12-06T01:25:38.458Z,3.60
2022-12-06T01:28:05.915Z,3.73
2022-12-06T01:30:33.655Z,3.67
2022-12-06T01:33:00.977Z,3.63
2022-12-06T01:35:28.202Z,3.27
2022-12-06T01:37:55.638Z,3.20
2022-12-06T01:40:23.141Z,3.03
2022-12-06T01:42:51.624Z,3.20
2022-12-06T01:45:18.889Z,3.30
2022-12-06T01:47:46.375Z,2.87
2022-12-06T01:50:23.384Z,3.10
2022-12-06T01:53:00.141Z,2.90
2022-12-06T01:55:28.682Z,3.13
2022-12-06T01:57:59.929Z,3.00
2022-12-06T02:00:27.435Z,2.63
2022-12-06T02:02:55.762Z,3.00
2022-12-06T02:05:23.313Z,3.07
2022-12-06T02:07:51.200Z,3.03
2022-12-06T02:10:19.157Z,3.30
2022-12-06T02:12:48.545Z,3.13
2022-12-06T02:15:15.866Z,3.07
2022-12-06T02:17:51.747Z,2.87
2022-12-06T02:20:31.627Z,3.00
2022-12-06T02:23:17.760Z,3.57
2022-12-06T02:26:04.831Z,4.10
2022-12-06T02:28:52.599Z,3.80
2022-12-06T02:31:26.423Z,3.57
2022-12-06T02:34:04.902Z,5.10
2022-12-06T02:36:46.565Z,3.87
2022-12-06T02:39:20.331Z,4.43
2022-12-06T02:41:54.371Z,4.20
2022-12-06T02:44:26.982Z,4.60
2022-12-06T02:46:54.589Z,5.50
2022-12-06T02:49:23.466Z,5.53
2022-12-06T02:51:52.702Z,7.07
2022-12-06T02:54:21.164Z,7.17
2022-12-06T02:56:48.757Z,6.60
2022-12-06T02:59:16.014Z,6.43
2022-12-06T03:01:46.234Z,5.97
2022-12-06T03:04:35.102Z,6.50
2022-12-06T03:07:21.896Z,6.77
2022-12-06T03:10:08.000Z,7.47
2022-12-06T03:12:56.380Z,9.17
2022-12-06T03:15:42.604Z,6.97
2022-12-06T03:18:09.959Z,5.80
2022-12-06T03:20:42.962Z,4.23
2022-12-06T03:23:16.642Z,2.90
2022-12-06T03:25:44.766Z,2.83
2022-12-06T03:28:15.294Z,2.73
2022-12-06T03:30:43.799Z,2.60
2022-12-06T03:33:12.691Z,2.90
2022-12-06T03:35:40.425Z,2.60
2022-12-06T03:38:17.637Z,3.07
2022-12-06T03:40:47.215Z,3.10
2022-12-06T03:43:15.057Z,3.27
2022-12-06T03:46:05.947Z,3.60
2022-12-06T03:48:36.748Z,3.33
2022-12-06T03:51:11.654Z,3.73
2022-12-06T03:53:46.718Z,3.63
2022-12-06T03:56:15.050Z,3.60
2022-12-06T03:58:42.410Z,3.90
2022-12-06T04:01:10.895Z,4.03
2022-12-06T04:03:39.322Z,3.80
2022-12-06T04:06:07.370Z,4.30
2022-12-06T04:08:35.328Z,4.23
2022-12-06T04:11:02.817Z,4.30
2022-12-06T04:13:30.090Z,4.53
2022-12-06T04:15:58.578Z,4.90
2022-12-06T04:18:26.622Z,5.00
2022-12-06T04:21:12.418Z,4.97
2022-12-06T04:23:40.552Z,4.70
2022-12-06T04:26:09.036Z,6.03
2022-12-06T04:28:55.431Z,5.17
2022-12-06T04:31:41.553Z,6.33
2022-12-06T04:34:27.652Z,6.80
2022-12-06T04:37:14.215Z,8.27
2022-12-06T04:39:45.513Z,12.97
2022-12-06T04:42:31.740Z,12.70
2022-12-06T04:44:59.033Z,8.60
2022-12-06T04:47:26.556Z,10.83
2022-12-06T04:49:54.085Z,7.80
2022-12-06T04:52:21.932Z,7.70
2022-12-06T04:54:52.349Z,8.57
2022-12-06T04:57:20.733Z,6.50
2022-12-06T04:59:49.464Z,4.93
2022-12-06T05:02:16.794Z,14.50
2022-12-06T05:04:44.117Z,8.80
2022-12-06T05:07:12.009Z,5.57
2022-12-06T05:09:39.573Z,6.77
2022-12-06T05:12:07.091Z,5.63
2022-12-06T05:14:34.458Z,4.73
2022-12-06T05:17:01.902Z,5.20
2022-12-06T05:19:29.333Z,7.40
2022-12-06T05:21:56.669Z,8.33
2022-12-06T05:24:24.059Z,5.30
2022-12-06T05:26:51.540Z,5.07
2022-12-06T05:29:20.053Z,5.23
2022-12-06T05:31:47.756Z,5.77
2022-12-06T05:34:15.554Z,5.37
2022-12-06T05:36:45.420Z,5.40
2022-12-06T05:39:13.227Z,5.17
2022-12-06T05:41:40.527Z,4.87
2022-12-06T05:44:07.883Z,6.00
2022-12-06T05:46:35.263Z,5.33
2022-12-06T05:49:02.808Z,6.00
2022-12-06T05:51:30.197Z,6.47
2022-12-06T05:53:57.547Z,7.13
2022-12-06T05:56:24.938Z,6.23
2022-12-06T05:58:52.229Z,5.23
2022-12-06T06:01:19.781Z,5.43
2022-12-06T06:03:48.088Z,5.47
2022-12-06T06:06:15.662Z,5.57
2022-12-06T06:08:43.009Z,5.77
2022-12-06T06:11:10.750Z,6.90
2022-12-06T06:13:38.061Z,7.70
2022-12-06T06:16:05.522Z,7.43
2022-12-06T06:18:32.790Z,7.00
2022-12-06T06:21:01.127Z,6.43
2022-12-06T06:23:29.518Z,6.73
2022-12-06T06:25:57.119Z,5.67
2022-12-06T06:28:24.686Z,5.80
2022-12-06T06:30:51.980Z,6.20
2022-12-06T06:33:19.467Z,6.27
2022-12-06T06:35:47.117Z,6.37
2022-12-06T06:38:14.610Z,6.90
2022-12-06T06:40:42.040Z,11.67
2022-12-06T06:43:18.712Z,15.87
2022-12-06T06:45:47.175Z,13.93
2022-12-06T06:48:14.596Z,7.10
2022-12-06T06:50:43.149Z,6.60
2022-12-06T06:53:10.737Z,6.17
2022-12-06T06:55:38.186Z,6.60
2022-12-06T06:58:06.211Z,6.47
2022-12-06T07:00:34.116Z,8.93
2022-12-06T07:03:01.747Z,7.93
2022-12-06T07:05:29.085Z,7.00
2022-12-06T07:07:57.856Z,7.17
2022-12-06T07:10:28.538Z,6.70
2022-12-06T07:12:55.873Z,6.00
2022-12-06T07:15:23.524Z,5.30
2022-12-06T07:17:51.624Z,4.90
2022-12-06T07:20:19.482Z,5.10
2022-12-06T07:22:47.206Z,7.93
2022-12-06T07:25:14.722Z,10.43
2022-12-06T07:27:42.000Z,14.13
2022-12-06T07:30:11.308Z,20.73
2022-12-06T07:32:41.843Z,15.17
2022-12-06T07:35:09.487Z,11.97
2022-12-06T07:37:36.778Z,11.47
2022-12-06T07:40:04.368Z,11.03
2022-12-06T07:42:50.154Z,12.30
2022-12-06T07:45:17.550Z,10.87
2022-12-06T07:47:45.583Z,9.67
2022-12-06T07:50:17.852Z,9.03
2022-12-06T07:52:46.822Z,8.67
2022-12-06T07:55:14.133Z,8.37
2022-12-06T07:57:43.636Z,8.80
2022-12-06T08:00:12.333Z,8.77
2022-12-06T08:02:39.938Z,7.97
2022-12-06T08:05:07.387Z,8.27
2022-12-06T08:07:34.745Z,9.17
2022-12-06T08:10:02.660Z,9.00
2022-12-06T08:12:32.297Z,8.77
2022-12-06T08:15:00.227Z,8.43
2022-12-06T08:17:28.235Z,9.53
2022-12-06T08:19:55.631Z,8.87
2022-12-06T08:22:22.942Z,9.57
2022-12-06T08:24:50.394Z,10.27
2022-12-06T08:27:17.908Z,10.40
2022-12-06T08:29:45.566Z,10.10
2022-12-06T08:32:13.313Z,11.03
2022-12-06T08:34:40.657Z,11.93
2022-12-06T08:37:08.016Z,12.43
2022-12-06T08:39:35.294Z,12.37
2022-12-06T08:42:03.751Z,11.30
2022-12-06T08:44:32.504Z,12.23
2022-12-06T08:47:01.862Z,11.57
2022-12-06T08:49:30.415Z,13.33
2022-12-06T08:51:58.630Z,15.10
2022-12-06T08:54:26.774Z,15.60
2022-12-06T08:56:54.514Z,14.10
2022-12-06T08:59:22.102Z,13.80
2022-12-06T09:01:51.639Z,12.90
2022-12-06T09:04:19.016Z,14.13
2022-12-06T09:06:47.232Z,13.90
2022-12-06T09:09:15.911Z,12.20
2022-12-06T09:11:43.725Z,11.37
2022-12-06T09:14:17.853Z,10.47
2022-12-06T09:16:49.446Z,9.80
2022-12-06T09:19:16.828Z,7.87
2022-12-06T09:21:44.478Z,9.77
2022-12-06T09:24:16.380Z,8.20
2022-12-06T09:26:44.142Z,8.97
2022-12-06T09:29:11.813Z,9.03
2022-12-06T09:31:40.485Z,8.70
2022-12-06T09:34:12.654Z,8.60
2022-12-06T09:36:46.402Z,8.77
2022-12-06T09:39:19.194Z,9.00
2022-12-06T09:41:49.668Z,9.47
2022-12-06T09:44:18.028Z,10.23
2022-12-06T09:47:04.241Z,8.90
2022-12-06T09:49:31.538Z,8.33
2022-12-06T09:52:18.025Z,8.33
2022-12-06T09:55:04.603Z,8.00
2022-12-06T09:57:52.625Z,8.53
2022-12-06T10:00:23.291Z,8.47
2022-12-06T10:03:18.250Z,10.50
2022-12-06T10:06:02.977Z,9.47
2022-12-06T10:08:36.596Z,10.27
2022-12-06T10:11:17.242Z,10.43
2022-12-06T10:14:03.312Z,7.50
2022-12-06T10:16:31.110Z,7.27
2022-12-06T10:19:05.455Z,7.37
2022-12-06T10:21:46.230Z,7.13
2022-12-06T10:24:16.476Z,7.43
2022-12-06T10:26:54.333Z,8.13
2022-12-06T10:29:29.504Z,7.90
2022-12-06T10:31:58.909Z,7.77
2022-12-06T10:34:49.067Z,7.17
2022-12-06T10:37:20.354Z,7.53
2022-12-06T10:39:57.022Z,7.90
2022-12-06T10:42:27.331Z,7.53
2022-12-06T10:45:00.542Z,7.93
2022-12-06T10:47:34.102Z,8.10
2022-12-06T10:50:15.174Z,7.50
2022-12-06T10:52:46.278Z,6.97
2022-12-06T10:55:18.446Z,6.67
2022-12-06T10:57:51.088Z,6.83
2022-12-06T11:00:20.765Z,7.93
2022-12-06T11:03:01.389Z,7.97
2022-12-06T11:05:47.362Z,7.83
2022-12-06T11:08:16.522Z,7.90
2022-12-06T11:10:45.789Z,6.90
2022-12-06T11:13:19.483Z,7.23
2022-12-06T11:15:54.239Z,6.27
2022-12-06T11:18:22.156Z,6.47
2022-12-06T11:20:59.733Z,6.63
2022-12-06T11:23:40.228Z,6.40
2022-12-06T11:26:15.274Z,6.60
2022-12-06T11:28:44.604Z,5.50
2022-12-06T11:31:18.199Z,5.70
2022-12-06T11:33:46.485Z,5.23
2022-12-06T11:36:14.268Z,5.83
2022-12-06T11:38:43.212Z,6.07
2022-12-06T11:41:12.741Z,6.10
2022-12-06T11:43:40.678Z,6.43
2022-12-06T11:46:11.669Z,5.60
2022-12-06T11:48:39.002Z,5.73
2022-12-06T11:51:09.028Z,6.67
2022-12-06T11:53:38.294Z,5.80
2022-12-06T11:56:13.959Z,5.90
2022-12-06T11:58:45.050Z,5.27
2022-12-06T12:01:14.702Z,4.97
2022-12-06T12:03:44.473Z,4.80
2022-12-06T12:06:19.305Z,4.97
2022-12-06T12:09:04.898Z,5.37
2022-12-06T12:11:46.002Z,5.13
2022-12-06T12:14:26.140Z,4.00
2022-12-06T12:16:57.187Z,4.23
2022-12-06T12:19:24.672Z,6.60
2022-12-06T12:21:54.417Z,4.67
2022-12-06T12:25:03.278Z,5.50
2022-12-06T12:27:32.764Z,4.70
2022-12-06T12:30:18.967Z,4.80
2022-12-06T12:32:47.125Z,4.77
2022-12-06T12:35:25.510Z,5.40
2022-12-06T12:37:58.032Z,5.40
2022-12-06T12:40:30.124Z,5.33
2022-12-06T12:42:59.247Z,5.23
2022-12-06T12:45:27.768Z,5.60
2022-12-06T12:47:59.161Z,13.43
2022-12-06T12:50:27.274Z,11.80
2022-12-06T12:52:54.829Z,5.40
2022-12-06T12:55:25.633Z,6.40
2022-12-06T12:57:54.248Z,6.50
2022-12-06T13:00:26.222Z,5.70
2022-12-06T13:03:01.874Z,6.50
2022-12-06T13:05:40.740Z,12.80
2022-12-06T13:08:15.850Z,3.97
2022-12-06T13:10:45.355Z,4.63
2022-12-06T13:13:19.914Z,16.47
2022-12-06T13:15:49.096Z,5.27
2022-12-06T13:18:19.467Z,4.97
2022-12-06T13:20:48.296Z,5.77
2022-12-06T13:23:20.761Z,6.10
2022-12-06T13:25:50.505Z,6.60
2022-12-06T13:28:19.897Z,7.43
2022-12-06T13:30:48.559Z,7.63
2022-12-06T13:33:21.594Z,8.10
2022-12-06T13:36:01.628Z,8.50
2022-12-06T13:38:37.465Z,8.50
2022-12-06T13:41:08.359Z,8.53
2022-12-06T13:43:49.941Z,8.97
2022-12-06T13:46:22.668Z,9.40
2022-12-06T13:48:59.467Z,9.37
2022-12-06T13:51:33.101Z,9.40
2022-12-06T13:54:06.730Z,14.00
2022-12-06T13:56:34.225Z,9.57
2022-12-06T13:59:04.267Z,11.10
2022-12-06T14:01:40.048Z,8.77
2022-12-06T14:06:55.920Z,8.23
2022-12-06T14:09:24.133Z,8.37
2022-12-06T14:11:53.137Z,9.80
2022-12-06T14:14:21.884Z,8.37
2022-12-06T14:16:50.917Z,8.10
2022-12-06T14:19:21.388Z,8.50
2022-12-06T14:21:57.444Z,8.03
2022-12-06T14:24:28.063Z,8.40
2022-12-06T14:26:55.595Z,8.30
2022-12-06T14:29:24.201Z,7.30
2022-12-06T14:31:52.349Z,10.10
2022-12-06T14:34:26.947Z,7.60
2022-12-06T14:36:55.282Z,14.33
2022-12-06T14:39:30.092Z,12.17
2022-12-06T14:42:17.841Z,11.90
2022-12-06T14:44:49.628Z,14.90
2022-12-06T14:47:21.615Z,21.97
2022-12-06T14:50:15.014Z,34.07
2022-12-06T14:53:00.944Z,36.10
2022-12-06T14:55:29.829Z,22.23
2022-12-06T14:58:02.415Z,25.83
2022-12-06T15:00:37.337Z,29.27
2022-12-06T15:03:11.850Z,10.73
2022-12-06T15:05:40.680Z,7.93
2022-12-06T15:08:31.365Z,8.10
2022-12-06T15:11:37.797Z,8.60
2022-12-06T15:14:13.372Z,9.30
2022-12-06T15:16:41.085Z,8.40
2022-12-06T15:19:12.453Z,8.63
2022-12-06T15:21:40.300Z,8.27
2022-12-06T15:24:34.549Z,8.47
2022-12-06T15:27:01.905Z,8.53
2022-12-06T15:29:29.152Z,9.07
2022-12-06T15:31:56.626Z,10.10
2022-12-06T15:34:25.959Z,11.43
2022-12-06T15:37:15.279Z,9.97
2022-12-06T15:39:41.048Z,10.13
2022-12-06T15:42:13.416Z,9.70
2022-12-06T15:44:45.668Z,9.50
2022-12-06T15:47:16.161Z,9.43
2022-12-06T15:49:43.922Z,9.10
2022-12-06T15:52:18.895Z,9.67
2022-12-06T15:54:46.691Z,9.80
2022-12-06T15:57:15.610Z,11.57
2022-12-06T15:59:43.135Z,10.37
2022-12-06T16:02:18.640Z,10.03
2022-12-06T16:04:48.600Z,10.00
2022-12-06T16:07:19.164Z,10.60
2022-12-06T16:09:46.882Z,11.10
2022-12-06T16:12:14.221Z,10.17
2022-12-06T16:14:41.445Z,15.23
2022-12-06T16:17:08.844Z,10.40
2022-12-06T16:19:54.801Z,11.53
2022-12-06T16:22:42.102Z,12.40
2022-12-06T16:25:10.011Z,10.70
2022-12-06T16:27:37.308Z,11.50
2022-12-06T16:30:05.127Z,11.57
2022-12-06T16:32:33.249Z,11.40
2022-12-06T16:35:01.184Z,11.57
2022-12-06T16:37:28.764Z,13.60
2022-12-06T16:39:56.656Z,11.93
2022-12-06T16:42:23.899Z,13.30
2022-12-06T16:44:51.538Z,11.93
2022-12-06T16:49:48.456Z,12.93
2022-12-06T16:52:17.053Z,13.73
2022-12-06T16:54:44.452Z,15.57
2022-12-06T16:57:13.270Z,14.40
2022-12-06T16:59:42.454Z,15.77
2022-12-06T17:02:36.918Z,16.70
2022-12-06T17:05:08.356Z,16.80
2022-12-06T17:07:36.538Z,16.73
2022-12-06T17:10:04.155Z,18.17
2022-12-06T17:12:31.529Z,18.63
2022-12-06T17:15:00.423Z,18.00
2022-12-06T17:17:29.813Z,18.30
2022-12-06T17:19:57.194Z,18.20
2022-12-06T17:22:24.613Z,18.00
2022-12-06T17:24:52.053Z,18.53
2022-12-06T17:27:19.855Z,18.27
2022-12-06T17:29:47.391Z,17.43
2022-12-06T17:32:14.805Z,17.07
2022-12-06T17:34:42.325Z,14.70
2022-12-06T17:37:10.162Z,15.13
2022-12-06T17:39:37.483Z,15.13
2022-12-06T17:42:23.507Z,15.10
2022-12-06T17:44:51.894Z,16.73
2022-12-06T17:47:19.829Z,16.10
2022-12-06T17:49:47.216Z,13.97
2022-12-06T17:52:15.963Z,14.73
2022-12-06T17:54:44.350Z,12.67
2022-12-06T17:57:17.708Z,12.33
2022-12-06T17:59:46.425Z,13.03
2022-12-06T18:02:19.245Z,10.67
2022-12-06T18:04:48.483Z,15.63
2022-12-06T18:07:16.553Z,12.80
2022-12-06T18:09:43.853Z,14.63
2022-12-06T18:12:12.226Z,17.77
2022-12-06T18:14:39.662Z,20.93
2022-12-06T18:17:07.167Z,17.47
2022-12-06T18:19:34.719Z,16.93
2022-12-06T18:22:02.079Z,16.23
2022-12-06T18:24:35.401Z,15.00
2022-12-06T18:27:03.993Z,16.03
2022-12-06T18:29:31.387Z,15.73
2022-12-06T18:31:59.008Z,16.80
2022-12-06T18:34:26.603Z,16.53
2022-12-06T18:36:55.122Z,16.50
2022-12-06T18:39:25.234Z,16.33
2022-12-06T18:41:53.445Z,17.73
2022-12-06T18:44:20.905Z,16.83
2022-12-06T18:46:48.690Z,16.20
2022-12-06T18:49:16.199Z,17.13
2022-12-06T18:51:43.619Z,16.13
2022-12-06T18:54:14.152Z,16.73
2022-12-06T18:56:46.376Z,14.70
2022-12-06T18:59:13.765Z,16.97
2022-12-06T19:01:42.517Z,15.30
2022-12-06T19:04:14.372Z,17.30
2022-12-06T19:06:41.828Z,16.10
2022-12-06T19:09:11.135Z,16.13
2022-12-06T19:11:39.339Z,14.83
2022-12-06T19:14:07.087Z,14.80
2022-12-06T19:16:36.247Z,14.70
2022-12-06T19:19:05.344Z,15.30
2022-12-06T19:21:33.512Z,17.17
2022-12-06T19:24:01.111Z,14.60
2022-12-06T19:26:29.614Z,14.37
2022-12-06T19:28:57.372Z,14.50
2022-12-06T19:31:24.830Z,16.17
2022-12-06T19:33:52.804Z,13.80
2022-12-06T19:36:22.414Z,15.00
2022-12-06T19:38:50.144Z,13.23
2022-12-06T19:41:18.533Z,12.20
2022-12-06T19:44:04.429Z,12.03
2022-12-06T19:46:32.350Z,13.17
2022-12-06T19:49:01.502Z,14.07
2022-12-06T19:51:29.326Z,13.27
2022-12-06T19:53:58.110Z,12.70
2022-12-06T19:56:25.889Z,12.80
2022-12-06T19:58:55.093Z,12.60
2022-12-06T20:01:26.288Z,12.90
2022-12-06T20:03:54.594Z,12.50
2022-12-06T20:06:23.581Z,13.20
2022-12-06T20:08:51.321Z,13.07
2022-12-06T20:11:38.465Z,12.40
2022-12-06T20:14:10.839Z,12.30
2022-12-06T20:16:38.911Z,13.40
2022-12-06T20:19:06.955Z,12.73
2022-12-06T20:21:34.247Z,14.23
2022-12-06T20:24:01.657Z,16.87
2022-12-06T20:26:29.660Z,12.30
2022-12-06T20:28:57.022Z,12.43
2022-12-06T20:31:25.564Z,12.20
2022-12-06T20:34:01.693Z,12.40
2022-12-06T20:36:30.465Z,12.40
2022-12-06T20:38:58.405Z,11.30
2022-12-06T20:41:26.665Z,10.80
2022-12-06T20:43:54.159Z,11.43
2022-12-06T20:46:23.220Z,11.80
2022-12-06T20:48:50.505Z,11.43
2022-12-06T20:51:22.116Z,11.40
2022-12-06T20:53:51.467Z,10.20
2022-12-06T20:56:20.203Z,10.30
2022-12-06T20:58:51.431Z,10.33
2022-12-06T21:01:20.439Z,10.73
2022-12-06T21:03:48.382Z,10.13
2022-12-06T21:06:17.108Z,10.43
2022-12-06T21:08:44.663Z,10.40
2022-12-06T21:11:22.627Z,10.27
2022-12-06T21:13:51.571Z,10.17
2022-12-06T21:16:20.268Z,10.87
2022-12-06T21:18:49.467Z,11.20
2022-12-06T21:21:27.947Z,11.03
2022-12-06T21:23:55.400Z,9.93
2022-12-06T21:26:22.704Z,9.33
2022-12-06T21:28:52.884Z,11.13
2022-12-06T21:31:20.318Z,10.40
2022-12-06T21:33:47.684Z,10.93
2022-12-06T21:36:15.358Z,9.93
2022-12-06T21:38:43.905Z,12.97
2022-12-06T21:41:16.080Z,12.10
2022-12-06T21:43:44.194Z,11.17
2022-12-06T21:46:13.472Z,11.27
2022-12-06T21:48:40.948Z,11.17
2022-12-06T21:51:09.799Z,10.33
2022-12-06T21:53:37.625Z,9.83
2022-12-06T21:56:09.020Z,10.10
2022-12-06T21:58:36.876Z,10.87
2022-12-06T22:01:05.480Z,10.60
2022-12-06T22:03:32.831Z,10.73
2022-12-06T22:06:04.389Z,11.33
2022-12-06T22:08:31.595Z,10.13
2022-12-06T22:10:59.087Z,11.43
2022-12-06T22:13:27.165Z,10.90
2022-12-06T22:15:54.509Z,11.13
2022-12-06T22:18:21.825Z,10.80
2022-12-06T22:20:57.283Z,10.83
2022-12-06T22:23:24.784Z,10.87
2022-12-06T22:25:52.344Z,10.10
2022-12-06T22:28:19.732Z,10.37
2022-12-06T22:30:47.024Z,10.00
2022-12-06T22:33:14.376Z,10.17
2022-12-06T22:35:42.058Z,10.60
2022-12-06T22:38:09.556Z,10.53
2022-12-06T22:40:36.854Z,9.87
2022-12-06T22:43:08.173Z,11.27
2022-12-06T22:45:35.672Z,11.27
2022-12-06T22:48:03.108Z,10.40
2022-12-06T22:50:30.510Z,12.03
2022-12-06T22:52:58.014Z,11.87
2022-12-06T22:55:25.341Z,12.60
2022-12-06T22:57:52.628Z,12.77
2022-12-06T23:00:20.243Z,11.60
2022-12-06T23:02:48.078Z,11.53
2022-12-06T23:05:15.634Z,11.77
2022-12-06T23:07:43.078Z,12.27
2022-12-06T23:10:10.786Z,12.77
2022-12-06T23:12:39.773Z,12.53
2022-12-06T23:15:07.346Z,12.53
2022-12-06T23:17:34.751Z,13.33
2022-12-06T23:20:02.241Z,13.30
2022-12-06T23:22:32.521Z,15.27
2022-12-06T23:24:59.984Z,12.13
2022-12-06T23:27:27.381Z,13.13
2022-12-06T23:29:54.757Z,15.73
2022-12-06T23:32:22.047Z,15.50
2022-12-06T23:34:49.658Z,13.10
2022-12-06T23:37:17.025Z,13.10
2022-12-06T23:39:44.344Z,13.60
2022-12-06T23:42:11.686Z,13.53
2022-12-06T23:44:40.215Z,12.43
2022-12-06T23:47:07.680Z,13.63
2022-12-06T23:49:34.925Z,13.50
2022-12-06T23:52:02.352Z,12.23
2022-12-06T23:54:29.692Z,13.73
2022-12-06T23:56:56.965Z,13.87
2022-12-06T23:59:24.917Z,12.53
